sensor_id;sensor_type;location;lat;lon;timestamp;pressure;altitude;pressure_sealevel;temperature;humidity
23446;BME280;11895;48.738;9.320;2023-04-02T09:35:31;98576.41;;;13.46;100.00
23446;BME280;11895;48.738;9.320;2023-04-02T09:38:22;98580.69;;;13.93;100.00
23446;BME280;11895;48.738;9.320;2023-04-02T09:41:02;98579.88;;;13.91;100.00
23446;BME280;11895;48.738;9.320;2023-04-02T09:43:32;98584.88;;;14.26;100.00
23446;BME280;11895;48.738;9.320;2023-04-02T09:48:43;98589.50;;;14.52;100.00
23446;BME280;11895;48.738;9.320;2023-04-02T09:51:16;98585.75;;;14.68;100.00
23446;BME280;11895;48.738;9.320;2023-04-02T09:54:12;98593.06;;;14.53;100.00
23446;BME280;11895;48.738;9.320;2023-04-02T09:57:02;98593.38;;;14.34;100.00
23446;BME280;11895;48.738;9.320;2023-04-02T09:59:30;98599.28;;;14.26;100.00
23446;BME280;11895;48.738;9.320;2023-04-02T10:01:59;98606.19;;;14.18;100.00
23446;BME280;11895;48.738;9.320;2023-04-02T10:04:44;98598.94;;;14.45;100.00
23446;BME280;11895;48.738;9.320;2023-04-02T10:10:40;98609.03;;;14.57;100.00
23446;BME280;11895;48.738;9.320;2023-04-02T10:13:45;98610.59;;;14.74;100.00
23446;BME280;11895;48.738;9.320;2023-04-02T10:19:31;98624.84;;;14.22;100.00
23446;BME280;11895;48.738;9.320;2023-04-02T10:22:17;98617.56;;;14.37;100.00
23446;BME280;11895;48.738;9.320;2023-04-02T10:24:48;98622.94;;;14.65;100.00
23446;BME280;11895;48.738;9.320;2023-04-02T10:33:17;98628.13;;;15.23;100.00
23446;BME280;11895;48.738;9.320;2023-04-02T10:39:29;98627.34;;;14.81;100.00
23446;BME280;11895;48.738;9.320;2023-04-02T10:45:15;98635.94;;;14.60;100.00
23446;BME280;11895;48.738;9.320;2023-04-02T10:48:13;98629.16;;;14.53;100.00
23446;BME280;11895;48.738;9.320;2023-04-02T10:51:05;98631.22;;;14.77;100.00
23446;BME280;11895;48.738;9.320;2023-04-02T10:53:50;98641.19;;;14.49;100.00
23446;BME280;11895;48.738;9.320;2023-04-02T10:56:30;98639.25;;;14.78;100.00
23446;BME280;11895;48.738;9.320;2023-04-02T10:59:28;98650.88;;;15.07;100.00
23446;BME280;11895;48.738;9.320;2023-04-02T11:02:02;98648.38;;;15.04;100.00
23446;BME280;11895;48.738;9.320;2023-04-02T11:04:44;98650.16;;;14.91;100.00
23446;BME280;11895;48.738;9.320;2023-04-02T11:07:24;98655.22;;;14.83;100.00
23446;BME280;11895;48.738;9.320;2023-04-02T11:09:55;98662.00;;;14.90;100.00
23446;BME280;11895;48.738;9.320;2023-04-02T11:12:50;98658.94;;;14.68;100.00
23446;BME280;11895;48.738;9.320;2023-04-02T11:15:24;98658.31;;;14.91;100.00
23446;BME280;11895;48.738;9.320;2023-04-02T11:17:52;98668.16;;;14.92;100.00
23446;BME280;11895;48.738;9.320;2023-04-02T11:23:19;98663.19;;;15.26;100.00
23446;BME280;11895;48.738;9.320;2023-04-02T11:25:47;98664.41;;;15.34;100.00
23446;BME280;11895;48.738;9.320;2023-04-02T11:28:29;98664.97;;;15.39;100.00
23446;BME280;11895;48.738;9.320;2023-04-02T11:30:58;98677.88;;;15.36;100.00
23446;BME280;11895;48.738;9.320;2023-04-02T11:33:37;98676.75;;;15.26;100.00
23446;BME280;11895;48.738;9.320;2023-04-02T11:39:44;98680.50;;;15.50;100.00
23446;BME280;11895;48.738;9.320;2023-04-02T11:44:45;98691.06;;;15.28;100.00
23446;BME280;11895;48.738;9.320;2023-04-02T11:47:23;98686.56;;;15.28;100.00
23446;BME280;11895;48.738;9.320;2023-04-02T11:55:24;98688.53;;;16.04;100.00
23446;BME280;11895;48.738;9.320;2023-04-02T12:09:21;98695.78;;;16.29;100.00
23446;BME280;11895;48.738;9.320;2023-04-02T12:11:59;98700.72;;;15.86;100.00
23446;BME280;11895;48.738;9.320;2023-04-02T12:16:59;98709.06;;;16.34;100.00
23446;BME280;11895;48.738;9.320;2023-04-02T12:19:30;98712.66;;;16.34;100.00
23446;BME280;11895;48.738;9.320;2023-04-02T12:21:59;98710.34;;;16.54;100.00
23446;BME280;11895;48.738;9.320;2023-04-02T12:24:27;98717.09;;;16.74;100.00
23446;BME280;11895;48.738;9.320;2023-04-02T12:27:18;98716.84;;;16.77;100.00
23446;BME280;11895;48.738;9.320;2023-04-02T12:30:17;98709.31;;;16.93;100.00
23446;BME280;11895;48.738;9.320;2023-04-02T12:35:43;98718.09;;;16.96;100.00
23446;BME280;11895;48.738;9.320;2023-04-02T12:38:21;98723.81;;;17.17;100.00
23446;BME280;11895;48.738;9.320;2023-04-02T12:40:55;98723.72;;;17.06;100.00
23446;BME280;11895;48.738;9.320;2023-04-02T12:43:30;98728.84;;;17.35;100.00
23446;BME280;11895;48.738;9.320;2023-04-02T12:46:02;98729.59;;;17.37;100.00
23446;BME280;11895;48.738;9.320;2023-04-02T12:48:33;98738.22;;;17.31;100.00
23446;BME280;11895;48.738;9.320;2023-04-02T12:51:03;98735.69;;;17.16;100.00
23446;BME280;11895;48.738;9.320;2023-04-02T12:53:38;98735.91;;;17.13;100.00
23446;BME280;11895;48.738;9.320;2023-04-02T12:56:18;98736.78;;;17.38;100.00
23446;BME280;11895;48.738;9.320;2023-04-02T12:58:58;98733.50;;;17.21;100.00
23446;BME280;11895;48.738;9.320;2023-04-02T13:01:31;98734.53;;;17.32;100.00
23446;BME280;11895;48.738;9.320;2023-04-02T13:04:09;98735.06;;;17.37;100.00
23446;BME280;11895;48.738;9.320;2023-04-02T13:06:49;98735.31;;;17.45;100.00
23446;BME280;11895;48.738;9.320;2023-04-02T13:09:33;98739.63;;;17.60;99.78
23446;BME280;11895;48.738;9.320;2023-04-02T13:12:02;98741.00;;;17.90;100.00
23446;BME280;11895;48.738;9.320;2023-04-02T13:14:30;98732.66;;;17.80;99.74
23446;BME280;11895;48.738;9.320;2023-04-02T13:16:57;98744.59;;;18.02;100.00
23446;BME280;11895;48.738;9.320;2023-04-02T13:19:32;98745.25;;;18.05;98.24
23446;BME280;11895;48.738;9.320;2023-04-02T13:22:02;98745.72;;;17.99;97.67
23446;BME280;11895;48.738;9.320;2023-04-02T13:24:31;98749.56;;;17.72;98.92
23446;BME280;11895;48.738;9.320;2023-04-02T13:27:01;98744.59;;;17.18;100.00
23446;BME280;11895;48.738;9.320;2023-04-02T13:29:32;98744.81;;;16.79;100.00
23446;BME280;11895;48.738;9.320;2023-04-02T13:32:06;98757.09;;;16.08;100.00
23446;BME280;11895;48.738;9.320;2023-04-02T13:34:38;98752.75;;;15.92;100.00
23446;BME280;11895;48.738;9.320;2023-04-02T13:37:05;98750.88;;;15.80;100.00
23446;BME280;11895;48.738;9.320;2023-04-02T13:39:32;98751.66;;;15.82;100.00
23446;BME280;11895;48.738;9.320;2023-04-02T13:42:02;98760.53;;;15.72;100.00
23446;BME280;11895;48.738;9.320;2023-04-02T13:44:32;98765.31;;;15.68;100.00
23446;BME280;11895;48.738;9.320;2023-04-02T13:47:00;98768.66;;;15.45;100.00
23446;BME280;11895;48.738;9.320;2023-04-02T13:49:28;98765.56;;;15.24;100.00
23446;BME280;11895;48.738;9.320;2023-04-02T13:51:59;98774.34;;;14.86;100.00
23446;BME280;11895;48.738;9.320;2023-04-02T13:54:50;98771.63;;;14.86;100.00
23446;BME280;11895;48.738;9.320;2023-04-02T13:57:21;98776.38;;;14.82;100.00
23446;BME280;11895;48.738;9.320;2023-04-02T13:59:48;98777.84;;;14.74;100.00
23446;BME280;11895;48.738;9.320;2023-04-02T14:02:22;98784.81;;;14.63;100.00
23446;BME280;11895;48.738;9.320;2023-04-02T14:27:40;98817.84;;;14.26;100.00
23446;BME280;11895;48.738;9.320;2023-04-02T14:31:03;98825.00;;;14.12;100.00
23446;BME280;11895;48.738;9.320;2023-04-02T14:33:45;98825.41;;;14.35;100.00
23446;BME280;11895;48.738;9.320;2023-04-02T14:36:21;98822.53;;;14.38;100.00
23446;BME280;11895;48.738;9.320;2023-04-02T14:39:11;98824.94;;;14.28;100.00
23446;BME280;11895;48.738;9.320;2023-04-02T14:41:57;98828.94;;;14.37;100.00
23446;BME280;11895;48.738;9.320;2023-04-02T14:44:37;98837.28;;;14.48;100.00
23446;BME280;11895;48.738;9.320;2023-04-02T14:47:42;98833.44;;;14.52;100.00
23446;BME280;11895;48.738;9.320;2023-04-02T14:50:24;98843.13;;;14.71;100.00
23446;BME280;11895;48.738;9.320;2023-04-02T14:53:13;98842.09;;;14.43;100.00
23446;BME280;11895;48.738;9.320;2023-04-02T14:55:48;98832.28;;;14.71;100.00
23446;BME280;11895;48.738;9.320;2023-04-02T14:58:36;98842.53;;;14.51;100.00
23446;BME280;11895;48.738;9.320;2023-04-02T15:01:17;98844.63;;;14.46;100.00
23446;BME280;11895;48.738;9.320;2023-04-02T15:04:02;98845.66;;;14.44;100.00
23446;BME280;11895;48.738;9.320;2023-04-02T15:06:47;98848.28;;;14.45;100.00
23446;BME280;11895;48.738;9.320;2023-04-02T15:09:27;98857.19;;;14.47;100.00
23446;BME280;11895;48.738;9.320;2023-04-02T15:12:19;98854.72;;;14.58;100.00
23446;BME280;11895;48.738;9.320;2023-04-02T15:15:53;98859.44;;;14.55;100.00
23446;BME280;11895;48.738;9.320;2023-04-02T15:18:15;98857.19;;;14.47;100.00
23446;BME280;11895;48.738;9.320;2023-04-02T15:24:08;98876.44;;;14.43;100.00
23446;BME280;11895;48.738;9.320;2023-04-02T15:30:21;98886.41;;;13.98;100.00
23446;BME280;11895;48.738;9.320;2023-04-02T15:39:02;98899.88;;;13.52;100.00
23446;BME280;11895;48.738;9.320;2023-04-02T15:42:16;98905.47;;;13.65;100.00
23446;BME280;11895;48.738;9.320;2023-04-02T15:48:11;98915.75;;;13.58;100.00
23446;BME280;11895;48.738;9.320;2023-04-02T15:51:30;98922.03;;;13.58;100.00
23446;BME280;11895;48.738;9.320;2023-04-02T16:00:24;98935.31;;;13.31;100.00
23446;BME280;11895;48.738;9.320;2023-04-02T16:03:19;98951.47;;;13.33;100.00
23446;BME280;11895;48.738;9.320;2023-04-02T16:06:27;98941.88;;;13.10;100.00
23446;BME280;11895;48.738;9.320;2023-04-02T16:12:16;98954.25;;;12.98;100.00
23446;BME280;11895;48.738;9.320;2023-04-02T16:14:47;98958.06;;;12.94;100.00
23446;BME280;11895;48.738;9.320;2023-04-02T16:17:25;98966.75;;;12.83;100.00
23446;BME280;11895;48.738;9.320;2023-04-02T16:20:23;98959.13;;;12.92;100.00
23446;BME280;11895;48.738;9.320;2023-04-02T16:23:05;98970.84;;;13.08;100.00
23446;BME280;11895;48.738;9.320;2023-04-02T16:25:53;98971.97;;;13.20;100.00
23446;BME280;11895;48.738;9.320;2023-04-02T16:28:35;98979.63;;;13.29;100.00
23446;BME280;11895;48.738;9.320;2023-04-02T16:37:25;98984.81;;;13.16;100.00
23446;BME280;11895;48.738;9.320;2023-04-02T16:50:18;99025.63;;;12.42;100.00
23446;BME280;11895;48.738;9.320;2023-04-02T17:01:58;99046.13;;;12.29;100.00
23446;BME280;11895;48.738;9.320;2023-04-02T17:10:59;99050.09;;;12.03;100.00
23446;BME280;11895;48.738;9.320;2023-04-02T17:13:40;99055.44;;;12.04;100.00
23446;BME280;11895;48.738;9.320;2023-04-02T17:16:41;99058.72;;;11.92;100.00
23446;BME280;11895;48.738;9.320;2023-04-02T17:19:15;99070.09;;;11.61;100.00
23446;BME280;11895;48.738;9.320;2023-04-02T17:21:48;99066.31;;;11.84;100.00
23446;BME280;11895;48.738;9.320;2023-04-02T17:24:25;99075.06;;;11.70;100.00
23446;BME280;11895;48.738;9.320;2023-04-02T17:27:04;99083.66;;;11.39;100.00
23446;BME280;11895;48.738;9.320;2023-04-02T17:29:41;99096.16;;;11.42;100.00
23446;BME280;11895;48.738;9.320;2023-04-02T17:32:31;99100.22;;;11.50;100.00
23446;BME280;11895;48.738;9.320;2023-04-02T17:38:39;99109.84;;;11.37;100.00
23446;BME280;11895;48.738;9.320;2023-04-02T17:41:39;99124.63;;;11.28;100.00
23446;BME280;11895;48.738;9.320;2023-04-02T17:53:42;99150.72;;;11.07;100.00
23446;BME280;11895;48.738;9.320;2023-04-02T18:00:20;99173.81;;;10.93;100.00
23446;BME280;11895;48.738;9.320;2023-04-02T18:06:03;99179.19;;;10.27;100.00
23446;BME280;11895;48.738;9.320;2023-04-02T18:12:32;99187.69;;;10.15;100.00
23446;BME280;11895;48.738;9.320;2023-04-02T18:18:44;99189.69;;;10.33;100.00
23446;BME280;11895;48.738;9.320;2023-04-02T18:45:51;99262.84;;;9.97;100.00
23446;BME280;11895;48.738;9.320;2023-04-02T18:48:40;99278.47;;;9.86;100.00
23446;BME280;11895;48.738;9.320;2023-04-02T18:51:22;99288.34;;;9.61;100.00
23446;BME280;11895;48.738;9.320;2023-04-02T18:56:41;99301.16;;;9.54;100.00
23446;BME280;11895;48.738;9.320;2023-04-02T18:59:27;99295.44;;;9.63;100.00
23446;BME280;11895;48.738;9.320;2023-04-02T19:05:04;99321.00;;;9.50;100.00
23446;BME280;11895;48.738;9.320;2023-04-02T19:07:40;99325.59;;;9.46;100.00
23446;BME280;11895;48.738;9.320;2023-04-02T19:10:32;99324.47;;;9.27;100.00
23446;BME280;11895;48.738;9.320;2023-04-02T19:13:04;99331.50;;;9.31;100.00
23446;BME280;11895;48.738;9.320;2023-04-02T19:16:07;99334.03;;;9.36;100.00
23446;BME280;11895;48.738;9.320;2023-04-02T19:45:14;99393.13;;;8.50;100.00
23446;BME280;11895;48.738;9.320;2023-04-02T19:47:46;99389.66;;;8.46;100.00
23446;BME280;11895;48.738;9.320;2023-04-02T19:50:14;99399.72;;;8.69;100.00
23446;BME280;11895;48.738;9.320;2023-04-02T19:52:42;99399.94;;;8.62;100.00
23446;BME280;11895;48.738;9.320;2023-04-02T19:55:10;99402.78;;;8.56;100.00
23446;BME280;11895;48.738;9.320;2023-04-02T19:57:38;99404.88;;;8.77;100.00
23446;BME280;11895;48.738;9.320;2023-04-02T20:00:07;99416.22;;;8.87;100.00
23446;BME280;11895;48.738;9.320;2023-04-02T20:02:38;99401.72;;;8.63;100.00
23446;BME280;11895;48.738;9.320;2023-04-02T20:05:09;99404.44;;;9.48;100.00
23446;BME280;11895;48.738;9.320;2023-04-02T20:07:37;99411.56;;;9.49;100.00
23446;BME280;11895;48.738;9.320;2023-04-02T20:10:06;99419.69;;;9.20;100.00
23446;BME280;11895;48.738;9.320;2023-04-02T20:12:34;99415.47;;;8.82;100.00
23446;BME280;11895;48.738;9.320;2023-04-02T20:15:05;99420.44;;;8.64;100.00
23446;BME280;11895;48.738;9.320;2023-04-02T20:17:33;99430.84;;;8.45;100.00
23446;BME280;11895;48.738;9.320;2023-04-02T20:20:01;99429.03;;;8.46;100.00
23446;BME280;11895;48.738;9.320;2023-04-02T20:22:29;99423.91;;;8.38;100.00
23446;BME280;11895;48.738;9.320;2023-04-02T20:24:56;99425.53;;;8.10;100.00
23446;BME280;11895;48.738;9.320;2023-04-02T20:27:24;99439.13;;;8.02;100.00
23446;BME280;11895;48.738;9.320;2023-04-02T20:29:54;99433.13;;;7.92;100.00
23446;BME280;11895;48.738;9.320;2023-04-02T20:32:22;99434.53;;;7.73;100.00
23446;BME280;11895;48.738;9.320;2023-04-02T20:34:50;99439.06;;;7.71;100.00
23446;BME280;11895;48.738;9.320;2023-04-02T20:37:19;99439.97;;;7.70;100.00
23446;BME280;11895;48.738;9.320;2023-04-02T20:39:47;99449.25;;;7.57;100.00
23446;BME280;11895;48.738;9.320;2023-04-02T20:42:15;99451.13;;;7.89;100.00
23446;BME280;11895;48.738;9.320;2023-04-02T20:44:43;99458.00;;;7.65;100.00
23446;BME280;11895;48.738;9.320;2023-04-02T20:47:10;99464.66;;;7.84;100.00
23446;BME280;11895;48.738;9.320;2023-04-02T20:49:38;99466.56;;;7.79;100.00
23446;BME280;11895;48.738;9.320;2023-04-02T20:52:05;99474.13;;;7.62;100.00
23446;BME280;11895;48.738;9.320;2023-04-02T20:54:33;99476.31;;;7.83;100.00
23446;BME280;11895;48.738;9.320;2023-04-02T20:57:06;99483.56;;;7.78;100.00
23446;BME280;11895;48.738;9.320;2023-04-02T20:59:33;99478.84;;;7.89;100.00
23446;BME280;11895;48.738;9.320;2023-04-02T21:02:01;99488.34;;;8.03;100.00
23446;BME280;11895;48.738;9.320;2023-04-02T21:04:28;99487.41;;;8.04;100.00
23446;BME280;11895;48.738;9.320;2023-04-02T21:06:55;99482.28;;;7.94;100.00
23446;BME280;11895;48.738;9.320;2023-04-02T21:09:23;99495.06;;;7.46;100.00
23446;BME280;11895;48.738;9.320;2023-04-02T21:11:50;99514.09;;;7.35;100.00
23446;BME280;11895;48.738;9.320;2023-04-02T21:14:18;99501.91;;;7.59;100.00
23446;BME280;11895;48.738;9.320;2023-04-02T21:16:45;99497.50;;;7.57;100.00
23446;BME280;11895;48.738;9.320;2023-04-02T21:19:12;99503.94;;;7.50;100.00
23446;BME280;11895;48.738;9.320;2023-04-02T21:21:39;99507.94;;;7.69;100.00
23446;BME280;11895;48.738;9.320;2023-04-02T21:24:08;99504.13;;;7.79;100.00
23446;BME280;11895;48.738;9.320;2023-04-02T21:26:43;99502.03;;;7.90;100.00
23446;BME280;11895;48.738;9.320;2023-04-02T21:29:18;99506.38;;;7.59;100.00
23446;BME280;11895;48.738;9.320;2023-04-02T21:31:47;99507.69;;;7.78;100.00
23446;BME280;11895;48.738;9.320;2023-04-02T21:34:15;99516.59;;;7.80;100.00
23446;BME280;11895;48.738;9.320;2023-04-02T21:36:46;99509.31;;;7.85;100.00
23446;BME280;11895;48.738;9.320;2023-04-02T21:39:22;99512.06;;;7.82;100.00
23446;BME280;11895;48.738;9.320;2023-04-02T21:41:53;99515.47;;;7.90;100.00
23446;BME280;11895;48.738;9.320;2023-04-02T21:44:22;99520.22;;;7.79;100.00
23446;BME280;11895;48.738;9.320;2023-04-02T21:46:51;99523.94;;;7.72;100.00
23446;BME280;11895;48.738;9.320;2023-04-02T21:49:21;99518.78;;;7.63;100.00
23446;BME280;11895;48.738;9.320;2023-04-02T21:51:49;99518.31;;;7.84;100.00
23446;BME280;11895;48.738;9.320;2023-04-02T21:54:20;99529.94;;;7.83;100.00
23446;BME280;11895;48.738;9.320;2023-04-02T21:56:48;99536.22;;;7.43;100.00
23446;BME280;11895;48.738;9.320;2023-04-02T21:59:17;99533.63;;;7.40;100.00
23446;BME280;11895;48.738;9.320;2023-04-02T22:01:49;99533.13;;;7.62;100.00
23446;BME280;11895;48.738;9.320;2023-04-02T22:04:23;99546.00;;;7.46;100.00
23446;BME280;11895;48.738;9.320;2023-04-02T22:06:52;99541.03;;;7.28;100.00
23446;BME280;11895;48.738;9.320;2023-04-02T22:09:24;99551.59;;;7.35;100.00
23446;BME280;11895;48.738;9.320;2023-04-02T22:11:55;99552.19;;;7.48;100.00
23446;BME280;11895;48.738;9.320;2023-04-02T22:14:28;99553.66;;;7.63;100.00
23446;BME280;11895;48.738;9.320;2023-04-02T22:16:56;99555.13;;;7.76;100.00
23446;BME280;11895;48.738;9.320;2023-04-02T22:19:27;99552.31;;;7.82;100.00
23446;BME280;11895;48.738;9.320;2023-04-02T22:21:54;99559.56;;;7.77;100.00
23446;BME280;11895;48.738;9.320;2023-04-02T22:24:22;99560.97;;;7.56;100.00
23446;BME280;11895;48.738;9.320;2023-04-02T22:26:51;99562.47;;;7.69;100.00
23446;BME280;11895;48.738;9.320;2023-04-02T22:29:18;99556.94;;;7.76;100.00
23446;BME280;11895;48.738;9.320;2023-04-02T22:31:46;99568.81;;;7.65;100.00
23446;BME280;11895;48.738;9.320;2023-04-02T22:34:13;99563.25;;;7.73;100.00
23446;BME280;11895;48.738;9.320;2023-04-02T22:36:42;99567.50;;;7.83;100.00
23446;BME280;11895;48.738;9.320;2023-04-02T22:39:10;99564.00;;;7.78;100.00
23446;BME280;11895;48.738;9.320;2023-04-02T22:41:38;99567.63;;;7.79;100.00
23446;BME280;11895;48.738;9.320;2023-04-02T22:44:06;99576.22;;;7.53;100.00
23446;BME280;11895;48.738;9.320;2023-04-02T22:46:33;99568.03;;;7.60;100.00
23446;BME280;11895;48.738;9.320;2023-04-02T22:49:01;99558.69;;;7.77;100.00
23446;BME280;11895;48.738;9.320;2023-04-02T22:51:29;99558.69;;;7.77;100.00
23446;BME280;11895;48.738;9.320;2023-04-02T22:53:56;99570.09;;;7.86;100.00
23446;BME280;11895;48.738;9.320;2023-04-02T22:56:27;99573.28;;;7.63;100.00
23446;BME280;11895;48.738;9.320;2023-04-02T22:58:58;99572.47;;;7.61;100.00
23446;BME280;11895;48.738;9.320;2023-04-02T23:01:32;99577.50;;;7.35;100.00
23446;BME280;11895;48.738;9.320;2023-04-02T23:04:01;99572.13;;;7.36;100.00
23446;BME280;11895;48.738;9.320;2023-04-02T23:06:31;99571.72;;;7.55;100.00
23446;BME280;11895;48.738;9.320;2023-04-02T23:08:58;99574.84;;;7.33;100.00
23446;BME280;11895;48.738;9.320;2023-04-02T23:11:27;99564.28;;;7.27;100.00
23446;BME280;11895;48.738;9.320;2023-04-02T23:13:56;99560.44;;;7.40;100.00
23446;BME280;11895;48.738;9.320;2023-04-02T23:16:26;99564.13;;;7.33;100.00
23446;BME280;11895;48.738;9.320;2023-04-02T23:18:55;99565.69;;;7.43;100.00
23446;BME280;11895;48.738;9.320;2023-04-02T23:21:24;99566.03;;;7.28;100.00
23446;BME280;11895;48.738;9.320;2023-04-02T23:23:52;99575.84;;;7.29;100.00
23446;BME280;11895;48.738;9.320;2023-04-02T23:26:30;99564.78;;;7.44;100.00
23446;BME280;11895;48.738;9.320;2023-04-02T23:28:59;99561.53;;;7.30;100.00
23446;BME280;11895;48.738;9.320;2023-04-02T23:31:28;99566.59;;;7.02;100.00
23446;BME280;11895;48.738;9.320;2023-04-02T23:33:56;99560.94;;;7.16;100.00
23446;BME280;11895;48.738;9.320;2023-04-02T23:36:29;99566.16;;;7.22;100.00
23446;BME280;11895;48.738;9.320;2023-04-02T23:39:00;99570.50;;;7.28;100.00
23446;BME280;11895;48.738;9.320;2023-04-02T23:41:38;99561.06;;;7.10;100.00
23446;BME280;11895;48.738;9.320;2023-04-02T23:44:08;99570.75;;;7.15;100.00
23446;BME280;11895;48.738;9.320;2023-04-02T23:46:35;99553.59;;;7.24;100.00
23446;BME280;11895;48.738;9.320;2023-04-02T23:49:03;99556.63;;;7.09;100.00
23446;BME280;11895;48.738;9.320;2023-04-02T23:51:31;99554.16;;;6.98;100.00
23446;BME280;11895;48.738;9.320;2023-04-02T23:53:58;99557.66;;;7.02;100.00
23446;BME280;11895;48.738;9.320;2023-04-02T23:56:26;99555.78;;;7.07;100.00
23446;BME280;11895;48.738;9.320;2023-04-02T23:58:54;99556.63;;;6.64;100.00
